createdAt,value
2019-01-27T00:01:25.960Z,-4.50
2019-01-27T00:03:56.194Z,-4.50
2019-01-27T00:06:26.545Z,-4.50
2019-01-27T00:08:56.803Z,-4.70
2019-01-27T00:11:27.250Z,-4.80
2019-01-27T00:13:57.574Z,-4.90
2019-01-27T00:16:27.813Z,-4.70
2019-01-27T00:18:58.203Z,-4.50
2019-01-27T00:21:28.456Z,-4.60
2019-01-27T00:23:58.727Z,-4.80
2019-01-27T00:26:29.037Z,-5.00
2019-01-27T00:28:59.278Z,-4.80
2019-01-27T00:31:29.440Z,-4.90
2019-01-27T00:33:59.772Z,-4.80
2019-01-27T00:36:30.054Z,-4.90
2019-01-27T00:39:00.278Z,-4.70
2019-01-27T00:41:30.734Z,-4.80
2019-01-27T00:44:00.952Z,-4.70
2019-01-27T00:46:31.304Z,-4.70
2019-01-27T00:49:02.590Z,-4.60
2019-01-27T00:51:32.840Z,-4.50
2019-01-27T00:54:03.173Z,-4.50
2019-01-27T00:56:33.496Z,-4.40
2019-01-27T00:59:03.900Z,-4.40
2019-01-27T01:01:34.178Z,-4.40
2019-01-27T01:04:04.771Z,-4.40
2019-01-27T01:06:34.977Z,-4.40
2019-01-27T01:09:09.996Z,-4.40
2019-01-27T01:11:40.522Z,-4.40
2019-01-27T01:14:10.802Z,-4.30
2019-01-27T01:16:41.062Z,-4.30
2019-01-27T01:21:47.188Z,-4.00
2019-01-27T01:24:17.422Z,-3.90
2019-01-27T01:26:47.697Z,-3.80
2019-01-27T01:29:18.069Z,-3.70
2019-01-27T01:31:48.347Z,-3.40
2019-01-27T01:34:18.614Z,-3.60
2019-01-27T01:36:48.896Z,-3.70
2019-01-27T01:39:19.173Z,-3.60
2019-01-27T01:41:49.491Z,-3.80
2019-01-27T01:44:19.741Z,-5.30
2019-01-27T01:46:50.063Z,-4.30
2019-01-27T01:49:20.327Z,-4.30
2019-01-27T01:51:50.639Z,-4.50
2019-01-27T01:54:20.940Z,-4.30
2019-01-27T01:56:51.131Z,-4.40
2019-01-27T01:59:21.487Z,-4.20
2019-01-27T02:01:51.734Z,-4.40
2019-01-27T02:04:22.117Z,-4.20
2019-01-27T02:06:52.432Z,-4.10
2019-01-27T02:09:22.712Z,-4.10
2019-01-27T02:11:53.035Z,-4.00
2019-01-27T02:14:23.330Z,-4.10
2019-01-27T02:16:53.682Z,-4.20
2019-01-27T02:19:23.926Z,-4.00
2019-01-27T02:21:54.578Z,-3.90
2019-01-27T02:24:24.864Z,-3.00
2019-01-27T02:26:55.174Z,-3.80
2019-01-27T02:29:25.628Z,-2.30
2019-01-27T02:31:55.924Z,-3.60
2019-01-27T02:34:26.299Z,-3.80
2019-01-27T02:36:56.599Z,-3.70
2019-01-27T02:39:26.908Z,-3.80
2019-01-27T02:41:58.645Z,-3.80
2019-01-27T02:44:29.088Z,-3.80
2019-01-27T02:46:59.387Z,-3.70
2019-01-27T02:49:29.697Z,-3.50
2019-01-27T02:52:00.141Z,-3.50
2019-01-27T02:54:30.364Z,-3.50
2019-01-27T02:57:00.564Z,-3.50
2019-01-27T02:59:30.919Z,-3.40
2019-01-27T03:02:01.241Z,-3.40
2019-01-27T03:04:31.714Z,-3.40
2019-01-27T03:07:06.299Z,-3.40
2019-01-27T03:09:42.481Z,-3.50
2019-01-27T03:12:12.755Z,-3.60
2019-01-27T03:14:43.053Z,-3.60
2019-01-27T03:17:14.850Z,-3.60
2019-01-27T03:19:45.136Z,-3.40
2019-01-27T03:22:15.589Z,-3.10
2019-01-27T03:24:45.979Z,-3.30
2019-01-27T03:27:16.298Z,-3.10
2019-01-27T03:29:46.597Z,-3.10
2019-01-27T03:32:16.860Z,-3.10
2019-01-27T03:34:47.194Z,-3.10
2019-01-27T03:37:17.435Z,-3.10
2019-01-27T03:39:48.010Z,-3.40
2019-01-27T03:42:18.292Z,-3.30
2019-01-27T03:44:48.646Z,-3.50
2019-01-27T03:47:18.874Z,-3.40
2019-01-27T03:49:49.166Z,-3.30
2019-01-27T03:52:19.470Z,-3.20
2019-01-27T03:54:49.731Z,-3.40
2019-01-27T03:57:20.036Z,-3.40
2019-01-27T03:59:50.300Z,-3.20
2019-01-27T04:02:20.647Z,-3.20
2019-01-27T04:04:50.907Z,-3.20
2019-01-27T04:07:21.234Z,-3.10
2019-01-27T04:09:51.511Z,-3.10
2019-01-27T04:12:21.814Z,-3.20
2019-01-27T04:14:52.072Z,-3.20
2019-01-27T04:17:22.358Z,-3.10
2019-01-27T04:19:52.610Z,-3.00
2019-01-27T04:22:29.187Z,-3.10
2019-01-27T04:24:59.410Z,-3.30
2019-01-27T04:27:29.702Z,-3.00
2019-01-27T04:30:00.136Z,-3.10
2019-01-27T04:32:30.395Z,-2.90
2019-01-27T04:35:00.684Z,-2.90
2019-01-27T04:37:30.905Z,-3.20
2019-01-27T04:40:01.191Z,-3.00
2019-01-27T04:42:31.466Z,-3.00
2019-01-27T04:45:01.772Z,-2.90
2019-01-27T04:47:32.130Z,-3.00
2019-01-27T04:50:02.343Z,-3.00
2019-01-27T04:52:32.668Z,-3.20
2019-01-27T04:55:02.919Z,-3.20
2019-01-27T04:57:33.257Z,-3.10
2019-01-27T05:00:05.500Z,-3.00
2019-01-27T05:02:40.722Z,-3.10
2019-01-27T05:05:11.251Z,-3.00
2019-01-27T05:07:41.514Z,-2.90
2019-01-27T05:10:11.875Z,-3.00
2019-01-27T05:12:42.344Z,-3.00
2019-01-27T05:15:14.078Z,-2.90
2019-01-27T05:17:44.333Z,-3.00
2019-01-27T05:20:14.625Z,-3.00
2019-01-27T05:22:44.889Z,-2.90
2019-01-27T05:25:15.437Z,-3.00
2019-01-27T05:27:45.861Z,-3.00
2019-01-27T05:30:18.440Z,-3.00
2019-01-27T05:32:48.825Z,-2.90
2019-01-27T05:35:19.351Z,-3.00
2019-01-27T05:37:49.565Z,-3.10
2019-01-27T05:40:20.026Z,-3.20
2019-01-27T05:42:50.376Z,-3.30
2019-01-27T05:45:20.627Z,-3.30
2019-01-27T05:47:50.895Z,-3.40
2019-01-27T05:50:21.394Z,-3.20
2019-01-27T05:52:51.691Z,-3.30
2019-01-27T05:55:21.969Z,-3.30
2019-01-27T05:57:52.410Z,-3.20
2019-01-27T06:00:30.079Z,-3.30
2019-01-27T06:03:00.345Z,-3.20
2019-01-27T06:05:30.619Z,-3.10
2019-01-27T06:08:00.895Z,-3.00
2019-01-27T06:10:31.141Z,-3.00
2019-01-27T06:13:01.481Z,-3.10
2019-01-27T06:15:31.788Z,-3.10
2019-01-27T06:18:02.150Z,-3.40
2019-01-27T06:20:32.387Z,-3.20
2019-01-27T06:23:02.635Z,-3.10
2019-01-27T06:25:33.127Z,-3.00
2019-01-27T06:28:03.359Z,-3.10
2019-01-27T06:30:33.619Z,-3.10
2019-01-27T06:33:08.622Z,-3.40
2019-01-27T06:35:39.405Z,-3.30
2019-01-27T06:38:09.657Z,-3.10
2019-01-27T06:40:39.931Z,-3.30
2019-01-27T06:43:10.203Z,-3.10
2019-01-27T06:45:40.455Z,-2.90
2019-01-27T06:48:10.803Z,-2.80
2019-01-27T06:50:41.049Z,-3.00
2019-01-27T06:53:15.591Z,-3.10
2019-01-27T06:55:45.878Z,-2.80
2019-01-27T06:58:16.179Z,-2.70
2019-01-27T07:00:53.315Z,-2.40
2019-01-27T07:03:29.753Z,-2.50
2019-01-27T07:06:06.118Z,-2.50
2019-01-27T07:08:44.554Z,-2.50
2019-01-27T07:11:24.461Z,-2.50
2019-01-27T07:14:18.750Z,-2.40
2019-01-27T07:17:01.586Z,-2.20
2019-01-27T07:20:02.653Z,-2.20
2019-01-27T07:22:40.961Z,-2.40
2019-01-27T07:25:32.026Z,-2.30
2019-01-27T07:28:20.097Z,-2.10
2019-01-27T07:31:15.403Z,-1.90
2019-01-27T07:34:04.721Z,-2.10
2019-01-27T07:36:49.109Z,-2.00
2019-01-27T07:39:41.213Z,-2.10
2019-01-27T07:42:39.260Z,-2.00
2019-01-27T07:45:29.134Z,-2.00
2019-01-27T07:48:21.373Z,-1.80
2019-01-27T07:51:14.336Z,-1.70
2019-01-27T07:54:10.921Z,-1.70
2019-01-27T07:57:00.139Z,-1.50
2019-01-27T07:59:36.425Z,-1.40
2019-01-27T08:02:17.075Z,-1.30
2019-01-27T08:04:56.338Z,-1.10
2019-01-27T08:07:42.995Z,-1.30
2019-01-27T08:10:29.598Z,-1.30
2019-01-27T08:13:21.584Z,-1.30
2019-01-27T08:16:25.821Z,-1.10
2019-01-27T08:19:15.035Z,-1.10
2019-01-27T08:21:53.194Z,-1.10
2019-01-27T08:24:40.894Z,-0.90
2019-01-27T08:27:32.848Z,-0.80
2019-01-27T08:30:22.066Z,-0.90
2019-01-27T08:33:01.227Z,-0.90
2019-01-27T08:35:41.384Z,-0.80
2019-01-27T08:38:17.778Z,-0.90
2019-01-27T08:41:12.754Z,-0.60
2019-01-27T08:43:55.773Z,-0.30
2019-01-27T08:46:47.832Z,-0.30
2019-01-27T08:49:18.106Z,-0.10
2019-01-27T08:51:48.411Z,0.10
2019-01-27T08:54:18.680Z,0.20
2019-01-27T08:56:48.918Z,0.10
2019-01-27T08:59:23.628Z,0.10
2019-01-27T09:02:21.452Z,0.00
2019-01-27T09:05:01.962Z,0.00
2019-01-27T09:07:55.724Z,-0.20
2019-01-27T09:10:42.273Z,-0.30
2019-01-27T09:13:31.624Z,-0.10
2019-01-27T09:16:23.974Z,-0.20
2019-01-27T09:19:00.378Z,0.00
2019-01-27T09:21:48.077Z,0.00
2019-01-27T09:24:36.218Z,0.00
2019-01-27T09:27:31.782Z,0.60
2019-01-27T09:30:19.566Z,0.30
2019-01-27T09:33:02.293Z,0.30
2019-01-27T09:35:49.669Z,0.50
2019-01-27T09:38:38.918Z,0.20
2019-01-27T09:41:20.152Z,0.30
2019-01-27T09:44:05.349Z,0.30
2019-01-27T09:47:09.678Z,0.30
2019-01-27T09:50:08.788Z,0.60
2019-01-27T09:52:49.166Z,0.60
2019-01-27T09:55:33.506Z,0.60
2019-01-27T09:58:31.885Z,0.70
2019-01-27T10:01:15.306Z,0.70
2019-01-27T10:04:04.578Z,0.80
2019-01-27T10:07:02.876Z,0.90
2019-01-27T10:09:53.210Z,1.00
2019-01-27T10:12:34.259Z,1.00
2019-01-27T10:15:24.622Z,1.00
2019-01-27T10:18:21.159Z,0.90
2019-01-27T10:21:12.543Z,0.80
2019-01-27T10:23:53.603Z,0.60
2019-01-27T10:26:41.458Z,0.80
2019-01-27T10:29:18.350Z,0.60
2019-01-27T10:31:57.959Z,0.60
2019-01-27T10:34:51.029Z,1.00
2019-01-27T10:37:30.457Z,0.70
2019-01-27T10:40:24.139Z,0.60
2019-01-27T10:43:05.759Z,0.70
2019-01-27T10:45:50.705Z,0.90
2019-01-27T10:48:37.847Z,0.90
2019-01-27T10:51:18.850Z,0.80
2019-01-27T10:53:57.719Z,1.00
2019-01-27T10:56:39.463Z,0.80
2019-01-27T10:59:22.123Z,0.90
2019-01-27T11:02:36.464Z,1.10
2019-01-27T11:05:19.100Z,1.00
2019-01-27T11:08:23.481Z,1.00
2019-01-27T11:11:01.307Z,1.10
2019-01-27T11:13:49.117Z,1.20
2019-01-27T11:16:36.819Z,1.20
2019-01-27T11:19:20.374Z,1.10
2019-01-27T11:22:12.393Z,1.10
2019-01-27T11:24:58.762Z,3.00
2019-01-27T11:27:52.971Z,1.20
2019-01-27T11:30:57.362Z,1.20
2019-01-27T11:33:58.581Z,1.10
2019-01-27T11:37:05.751Z,1.20
2019-01-27T11:40:09.787Z,1.20
2019-01-27T11:43:07.918Z,1.00
2019-01-27T11:46:00.323Z,1.10
2019-01-27T11:51:25.002Z,0.90
2019-01-27T11:53:55.298Z,0.80
2019-01-27T11:56:25.549Z,0.80
2019-01-27T11:58:55.874Z,0.90
2019-01-27T12:01:26.167Z,1.00
2019-01-27T12:03:56.463Z,0.90
2019-01-27T12:06:26.737Z,1.00
2019-01-27T12:08:57.227Z,0.90
2019-01-27T12:11:38.917Z,1.00
2019-01-27T12:14:09.410Z,0.90
2019-01-27T12:16:39.702Z,1.00
2019-01-27T12:19:09.975Z,1.00
2019-01-27T12:21:40.326Z,0.80
2019-01-27T12:24:11.967Z,0.90
2019-01-27T12:26:42.358Z,0.80
2019-01-27T12:29:12.725Z,0.90
2019-01-27T12:31:43.124Z,0.90
2019-01-27T12:34:13.375Z,1.00
2019-01-27T12:36:48.782Z,1.00
2019-01-27T12:39:19.044Z,1.10
2019-01-27T12:41:49.348Z,1.10
2019-01-27T12:44:19.614Z,1.10
2019-01-27T12:46:49.890Z,1.20
2019-01-27T12:49:20.142Z,1.30
2019-01-27T12:51:50.434Z,1.30
2019-01-27T12:54:20.776Z,1.30
2019-01-27T12:56:56.340Z,1.20
2019-01-27T12:59:32.794Z,1.20
2019-01-27T13:02:03.140Z,1.30
2019-01-27T13:04:33.418Z,1.30
2019-01-27T13:07:03.812Z,1.30
2019-01-27T13:09:34.074Z,1.30
2019-01-27T13:12:04.406Z,1.30
2019-01-27T13:14:34.648Z,1.30
2019-01-27T13:17:07.543Z,1.40
2019-01-27T13:19:36.770Z,1.30
2019-01-27T13:22:07.095Z,1.30
2019-01-27T13:24:37.332Z,1.40
2019-01-27T13:27:07.705Z,1.50
2019-01-27T13:29:37.948Z,1.50
2019-01-27T13:32:08.222Z,1.60
2019-01-27T13:34:38.480Z,1.50
2019-01-27T13:37:08.759Z,1.40
2019-01-27T13:39:39.053Z,1.50
2019-01-27T13:42:09.363Z,1.60
2019-01-27T13:44:39.963Z,1.50
2019-01-27T13:47:10.228Z,1.50
2019-01-27T13:49:40.583Z,1.30
2019-01-27T13:52:10.838Z,1.40
2019-01-27T13:54:41.144Z,1.40
2019-01-27T13:57:12.393Z,1.30
2019-01-27T13:59:42.628Z,1.40
2019-01-27T14:02:13.026Z,1.50
2019-01-27T14:04:48.471Z,1.40
2019-01-27T14:07:15.063Z,1.30
2019-01-27T14:09:45.615Z,1.40
2019-01-27T14:12:16.097Z,1.40
2019-01-27T14:14:46.413Z,1.40
2019-01-27T14:17:16.655Z,1.40
2019-01-27T14:19:47.956Z,1.50
2019-01-27T14:22:18.254Z,1.40
2019-01-27T14:24:48.490Z,1.30
2019-01-27T14:27:19.003Z,1.20
2019-01-27T14:29:49.230Z,1.30
2019-01-27T14:32:19.543Z,1.30
2019-01-27T14:34:49.791Z,1.20
2019-01-27T14:37:20.108Z,1.20
2019-01-27T14:39:50.388Z,1.10
2019-01-27T14:42:20.638Z,1.10
2019-01-27T14:44:50.964Z,1.00
2019-01-27T14:47:21.754Z,0.90
2019-01-27T14:49:52.016Z,1.00
2019-01-27T14:52:22.398Z,1.40
2019-01-27T14:54:53.653Z,1.20
2019-01-27T14:57:23.950Z,1.20
2019-01-27T14:59:54.207Z,1.20
2019-01-27T15:02:24.502Z,1.20
2019-01-27T15:04:54.795Z,1.20
2019-01-27T15:07:25.020Z,1.20
2019-01-27T15:09:55.320Z,1.20
2019-01-27T15:12:25.570Z,1.10
2019-01-27T15:14:55.902Z,1.30
2019-01-27T15:17:27.140Z,1.10
2019-01-27T15:19:57.449Z,1.10
2019-01-27T15:22:27.683Z,1.20
2019-01-27T15:24:58.000Z,1.10
2019-01-27T15:27:28.916Z,1.10
2019-01-27T15:29:59.198Z,1.10
2019-01-27T15:32:29.445Z,1.20
2019-01-27T15:34:59.738Z,1.20
2019-01-27T15:37:30.011Z,1.20
2019-01-27T15:40:00.294Z,1.20
2019-01-27T15:42:30.602Z,1.20
2019-01-27T15:45:00.928Z,1.20
2019-01-27T15:47:31.244Z,1.30
2019-01-27T15:50:01.584Z,1.30
2019-01-27T15:52:31.906Z,1.40
2019-01-27T15:55:02.224Z,1.30
2019-01-27T15:57:32.546Z,1.20
2019-01-27T16:00:03.036Z,1.30
2019-01-27T16:02:34.384Z,1.60
2019-01-27T16:05:06.114Z,1.40
2019-01-27T16:07:36.407Z,1.40
2019-01-27T16:10:07.411Z,1.50
2019-01-27T16:12:38.497Z,1.40
2019-01-27T16:15:12.891Z,1.50
2019-01-27T16:17:43.150Z,1.40
2019-01-27T16:20:14.266Z,1.50
2019-01-27T16:22:58.776Z,1.50
2019-01-27T16:25:28.998Z,1.50
2019-01-27T16:27:59.296Z,1.40
2019-01-27T16:31:03.763Z,1.40
2019-01-27T16:33:39.586Z,1.50
2019-01-27T16:36:09.959Z,1.40
2019-01-27T16:38:40.196Z,1.40
2019-01-27T16:41:10.590Z,1.40
2019-01-27T16:43:41.008Z,1.30
2019-01-27T16:46:11.304Z,1.40
2019-01-27T16:48:41.619Z,1.40
2019-01-27T16:51:13.556Z,1.60
2019-01-27T16:53:44.790Z,1.40
2019-01-27T16:56:15.142Z,1.50
2019-01-27T16:58:45.306Z,1.50
2019-01-27T17:01:15.760Z,1.30
2019-01-27T17:03:46.045Z,1.40
2019-01-27T17:06:16.503Z,1.50
2019-01-27T17:08:46.766Z,1.40
2019-01-27T17:11:17.111Z,1.40
2019-01-27T17:13:47.399Z,1.40
2019-01-27T17:16:17.697Z,1.40
2019-01-27T17:18:50.797Z,1.40
2019-01-27T17:21:21.107Z,1.40
2019-01-27T17:23:51.447Z,1.40
2019-01-27T17:26:21.781Z,1.50
2019-01-27T17:28:52.213Z,1.50
2019-01-27T17:31:22.532Z,1.60
2019-01-27T17:33:52.801Z,1.60
2019-01-27T17:36:23.043Z,1.40
2019-01-27T17:38:53.368Z,1.60
2019-01-27T17:41:24.021Z,1.60
2019-01-27T17:43:54.357Z,1.70
2019-01-27T17:46:24.653Z,1.60
2019-01-27T17:48:54.972Z,1.70
2019-01-27T17:51:25.343Z,1.80
2019-01-27T17:53:58.855Z,1.60
2019-01-27T17:56:29.213Z,1.80
2019-01-27T17:59:11.462Z,1.80
2019-01-27T18:01:59.336Z,1.50
2019-01-27T18:04:40.701Z,1.70
2019-01-27T18:07:33.932Z,2.20
2019-01-27T18:10:27.509Z,1.70
2019-01-27T18:13:10.701Z,2.60
2019-01-27T18:15:40.941Z,1.80
2019-01-27T18:18:11.202Z,1.80
2019-01-27T18:20:41.551Z,1.80
2019-01-27T18:23:11.833Z,1.80
2019-01-27T18:25:44.255Z,2.00
2019-01-27T18:28:14.262Z,1.80
2019-01-27T18:30:44.510Z,1.90
2019-01-27T18:33:15.004Z,1.80
2019-01-27T18:35:45.266Z,1.90
2019-01-27T18:38:17.627Z,1.80
2019-01-27T18:40:47.830Z,1.90
2019-01-27T18:43:18.138Z,1.70
2019-01-27T18:45:48.695Z,1.70
2019-01-27T18:48:18.943Z,1.80
2019-01-27T18:50:49.511Z,1.80
2019-01-27T18:53:38.893Z,1.80
2019-01-27T18:56:13.966Z,1.80
2019-01-27T18:59:05.906Z,1.70
2019-01-27T19:02:01.243Z,1.70
2019-01-27T19:04:50.869Z,1.80
2019-01-27T19:07:40.447Z,1.70
2019-01-27T19:10:30.737Z,1.80
2019-01-27T19:13:14.419Z,1.80
2019-01-27T19:16:22.172Z,1.80
2019-01-27T19:19:03.720Z,1.90
2019-01-27T19:21:58.838Z,1.80
2019-01-27T19:24:58.918Z,1.80
2019-01-27T19:27:45.422Z,1.70
2019-01-27T19:30:45.555Z,1.70
2019-01-27T19:33:49.663Z,1.70
2019-01-27T19:36:38.911Z,1.60
2019-01-27T19:39:23.500Z,1.70
2019-01-27T19:42:11.490Z,1.70
2019-01-27T19:44:59.401Z,1.70
2019-01-27T19:47:51.714Z,1.70
2019-01-27T19:50:47.021Z,1.60
2019-01-27T19:53:39.076Z,1.70
2019-01-27T19:56:31.056Z,1.70
2019-01-27T19:59:20.407Z,1.70
2019-01-27T20:02:08.026Z,1.80
2019-01-27T20:04:45.459Z,1.70
2019-01-27T20:07:46.860Z,1.80
2019-01-27T20:10:44.152Z,1.60
2019-01-27T20:13:20.589Z,1.60
2019-01-27T20:16:08.271Z,1.70
2019-01-27T20:18:57.461Z,1.70
2019-01-27T20:21:35.045Z,1.70
2019-01-27T20:24:18.435Z,1.60
2019-01-27T20:27:02.863Z,1.70
2019-01-27T20:29:52.155Z,1.70
2019-01-27T20:32:40.104Z,1.80
2019-01-27T20:35:17.606Z,1.70
2019-01-27T20:38:12.857Z,1.70
2019-01-27T20:40:49.526Z,1.80
2019-01-27T20:43:38.739Z,1.60
2019-01-27T20:46:37.121Z,1.50
2019-01-27T20:49:35.034Z,1.60
2019-01-27T20:52:27.334Z,1.60
2019-01-27T20:55:16.604Z,1.60
2019-01-27T20:57:53.685Z,1.70
2019-01-27T21:00:55.135Z,1.70
2019-01-27T21:03:32.284Z,1.70
2019-01-27T21:06:07.647Z,1.60
2019-01-27T21:08:55.583Z,1.60
2019-01-27T21:11:59.612Z,1.60
2019-01-27T21:14:47.343Z,1.70
2019-01-27T21:17:26.272Z,1.70
2019-01-27T21:20:02.083Z,1.60
2019-01-27T21:22:32.493Z,1.60
2019-01-27T21:25:02.733Z,1.50
2019-01-27T21:27:32.949Z,1.20
2019-01-27T21:30:03.163Z,1.10
2019-01-27T21:32:34.267Z,1.10
2019-01-27T21:35:05.197Z,1.10
2019-01-27T21:37:35.730Z,1.00
2019-01-27T21:40:08.719Z,1.00
2019-01-27T21:42:38.965Z,1.00
2019-01-27T21:45:10.161Z,1.00
2019-01-27T21:47:40.587Z,1.00
2019-01-27T21:50:13.880Z,1.10
2019-01-27T21:52:44.143Z,1.10
2019-01-27T21:55:14.846Z,1.10
2019-01-27T21:57:45.238Z,1.10
2019-01-27T22:00:19.285Z,1.10
2019-01-27T22:02:49.788Z,0.90
2019-01-27T22:05:20.129Z,1.00
2019-01-27T22:07:50.412Z,1.00
2019-01-27T22:10:20.713Z,1.10
2019-01-27T22:12:51.931Z,1.00
2019-01-27T22:15:22.246Z,1.00
2019-01-27T22:17:52.527Z,1.00
2019-01-27T22:20:22.775Z,0.90
2019-01-27T22:22:54.145Z,1.00
2019-01-27T22:25:24.419Z,0.90
2019-01-27T22:27:54.698Z,0.90
2019-01-27T22:30:24.935Z,1.00
2019-01-27T22:32:55.440Z,1.00
2019-01-27T22:35:25.698Z,1.00
2019-01-27T22:37:55.995Z,0.90
2019-01-27T22:40:26.392Z,0.90
2019-01-27T22:42:56.657Z,0.80
2019-01-27T22:45:26.874Z,0.60
2019-01-27T22:47:57.229Z,0.60
2019-01-27T22:50:27.535Z,0.60
2019-01-27T22:52:57.801Z,0.60
2019-01-27T22:55:28.110Z,0.60
2019-01-27T22:57:58.340Z,0.40
2019-01-27T23:00:57.221Z,0.40
2019-01-27T23:03:28.361Z,0.40
2019-01-27T23:05:58.638Z,0.50
2019-01-27T23:08:28.882Z,0.50
2019-01-27T23:10:59.142Z,0.40
2019-01-27T23:13:29.366Z,0.40
2019-01-27T23:15:59.666Z,0.30
2019-01-27T23:18:30.852Z,0.40
2019-01-27T23:21:01.139Z,0.40
2019-01-27T23:23:32.314Z,0.40
2019-01-27T23:26:02.599Z,0.30
2019-01-27T23:28:32.988Z,0.40
2019-01-27T23:31:03.270Z,0.30
2019-01-27T23:33:33.610Z,0.30
2019-01-27T23:36:04.133Z,0.30
2019-01-27T23:38:34.356Z,0.30
2019-01-27T23:41:04.636Z,0.30
2019-01-27T23:43:34.930Z,0.40
2019-01-27T23:46:05.374Z,0.40
2019-01-27T23:48:36.604Z,0.50
2019-01-27T23:51:06.864Z,0.40
2019-01-27T23:53:37.166Z,0.30
2019-01-27T23:56:07.388Z,0.30
2019-01-27T23:58:37.674Z,0.40
